Descanso, CA

1:42 PM PDT on June 28, 2017 (GMT -0700)
Descanso/Townhall area | | Change Station

Elev 3491 ft 32.85 °N, 116.62 °W | Updated 2 seconds ago

Clear
Clear
85.5 °F
Feels Like 82 °F
N
5.8
Wind Variable Wind from WNW
Gusts 7.4 mph

Today
High -- | Low -- °F
--% Chance of Precip.
Yesterday
High -- | Low -- °F
Precip. -- in
Pressure 29.83 in
Visibility -9999.0 miles
Clouds
Heat Index 82 °F
Dew Point 34 °F
Humidity 16%
Rainfall 0.00 in
Snow Depth Not available.
5:40 AM 7:58 PM
Waxing Crescent, 28% visible
METAR KCZZ 281952Z AUTO 23013G19KT 31/M04 A2992 RMK AO1 SLP099 T03111044
Pressure 29.83 in
Visibility -9999.0 miles
Clouds
Heat Index 82 °F
Dew Point 34 °F
Humidity 16%
Rainfall 0.00 in
Snow Depth Not available.
5:40 AM 7:58 PM
Waxing Crescent, 28% visible
METAR KCZZ 281952Z AUTO 23013G19KT 31/M04 A2992 RMK AO1 SLP099 T03111044

Get Severe Weather Alerts

Thanks for signing up!

Be on the lookout for a verification email in your inbox.

You'll start receiving the daily forecast at 6 AM.

×

10-Day Weather Forecast

Almanac

Astronomy

Jun. 28, 2017 Rise Set
Actual Time
Civil Twilight
Nautical Twilight
Astronomical Twilight
Moon
Length of Visible Light
Length of Day
Tomorrow will be .
, % of the Moon is Illuminated

Today's Extremes

State Highs State Lows

Community

WunderPhotos

Category 6

Welcome to Category 6. This is the collective home for Weather Underground's featured writeups by Dr. Jeff Masters (right), Bob Henson (left), Chris Burt, and other regular contributors.

Nearby

Air Quality

  Air Quality AQ Index Pollutant
Not available.

Snow Depth

Station Depth Elevation

Earthquake Activity

City Distance Mag. Time & Date
Minimum magnitude displayed is 2.5.

Coastal Water Temperatures

Place Temperature

Stations

Nearby Weather Stations

Station Location Temp. Windchill Dew Point Humidity Wind Precip. Elev Updated Type
                   

Watches & Warnings

There are currently no watches in effect.